createdAt,value
2022-10-26T00:00:52.996Z,4.57
2022-10-26T00:03:22.292Z,4.53
2022-10-26T00:05:50.209Z,4.53
2022-10-26T00:08:18.161Z,5.00
2022-10-26T00:10:46.085Z,4.50
2022-10-26T00:13:14.473Z,4.63
2022-10-26T00:15:43.293Z,4.87
2022-10-26T00:18:11.510Z,4.37
2022-10-26T00:20:40.773Z,3.80
2022-10-26T00:23:08.878Z,4.10
2022-10-26T00:25:36.955Z,3.83
2022-10-26T00:28:05.089Z,3.80
2022-10-26T00:30:33.195Z,3.60
2022-10-26T00:33:01.122Z,3.80
2022-10-26T00:35:44.918Z,3.50
2022-10-26T00:38:14.706Z,3.97
2022-10-26T00:40:44.324Z,3.50
2022-10-26T00:43:17.529Z,3.73
2022-10-26T00:45:46.592Z,3.30
2022-10-26T00:48:18.600Z,3.23
2022-10-26T00:50:48.545Z,3.27
2022-10-26T00:53:19.160Z,3.07
2022-10-26T00:55:50.261Z,3.27
2022-10-26T00:58:19.481Z,3.83
2022-10-26T01:00:48.076Z,3.40
2022-10-26T01:03:16.748Z,3.50
2022-10-26T01:05:46.760Z,3.33
2022-10-26T01:08:17.191Z,3.13
2022-10-26T01:10:45.326Z,3.07
2022-10-26T01:13:14.220Z,3.13
2022-10-26T01:15:52.403Z,3.40
2022-10-26T01:18:27.516Z,3.03
2022-10-26T01:21:24.728Z,3.17
2022-10-26T01:24:15.077Z,3.07
2022-10-26T01:27:06.293Z,3.20
2022-10-26T01:30:06.905Z,3.17
2022-10-26T01:32:41.636Z,3.30
2022-10-26T01:35:13.682Z,3.70
2022-10-26T01:37:48.322Z,3.60
2022-10-26T01:40:21.563Z,3.20
2022-10-26T01:43:00.460Z,3.33
2022-10-26T01:45:30.794Z,3.30
2022-10-26T01:48:01.789Z,3.37
2022-10-26T01:50:32.173Z,3.40
2022-10-26T01:53:00.308Z,3.20
2022-10-26T01:55:50.409Z,3.27
2022-10-26T01:58:48.524Z,3.50
2022-10-26T02:01:39.179Z,3.37
2022-10-26T02:04:20.114Z,3.20
2022-10-26T02:07:01.162Z,3.70
2022-10-26T02:09:38.989Z,3.17
2022-10-26T02:12:15.159Z,2.97
2022-10-26T02:14:49.369Z,3.10
2022-10-26T02:17:24.041Z,3.07
2022-10-26T02:19:57.107Z,3.27
2022-10-26T02:22:28.002Z,3.00
2022-10-26T02:24:57.600Z,3.10
2022-10-26T02:27:28.697Z,3.23
2022-10-26T02:29:58.350Z,2.50
2022-10-26T02:32:29.494Z,3.23
2022-10-26T02:35:01.289Z,3.07
2022-10-26T02:37:33.259Z,3.00
2022-10-26T02:40:04.901Z,2.83
2022-10-26T02:45:34.214Z,2.70
2022-10-26T02:48:02.233Z,2.63
2022-10-26T02:50:39.377Z,2.63
2022-10-26T02:53:16.937Z,2.37
2022-10-26T02:55:50.285Z,2.70
2022-10-26T02:58:23.237Z,2.60
2022-10-26T03:00:51.837Z,2.67
2022-10-26T03:03:20.633Z,2.53
2022-10-26T03:05:50.139Z,2.53
2022-10-26T03:08:18.444Z,2.90
2022-10-26T03:10:47.183Z,2.60
2022-10-26T03:13:15.601Z,2.60
2022-10-26T03:15:43.594Z,2.70
2022-10-26T03:18:11.554Z,2.87
2022-10-26T03:20:39.478Z,2.60
2022-10-26T03:23:08.748Z,2.80
2022-10-26T03:25:36.693Z,2.70
2022-10-26T03:28:06.103Z,2.67
2022-10-26T03:30:34.250Z,2.97
2022-10-26T03:33:02.229Z,2.63
2022-10-26T03:35:30.179Z,2.70
2022-10-26T03:37:58.136Z,2.70
2022-10-26T03:40:27.481Z,2.57
2022-10-26T03:45:33.305Z,2.80
2022-10-26T03:48:01.271Z,3.47
2022-10-26T03:50:29.228Z,2.80
2022-10-26T03:52:57.120Z,2.77
2022-10-26T03:55:25.074Z,2.87
2022-10-26T03:57:56.161Z,2.40
2022-10-26T04:00:24.117Z,2.60
2022-10-26T04:02:56.576Z,2.80
2022-10-26T04:05:25.379Z,2.40
2022-10-26T04:07:54.971Z,2.80
2022-10-26T04:10:23.032Z,2.80
2022-10-26T04:12:51.051Z,2.70
2022-10-26T04:15:21.690Z,2.60
2022-10-26T04:17:49.903Z,2.37
2022-10-26T04:20:18.388Z,2.60
2022-10-26T04:22:46.394Z,2.27
2022-10-26T04:25:14.489Z,2.10
2022-10-26T04:27:42.421Z,2.27
2022-10-26T04:30:11.288Z,2.33
2022-10-26T04:32:40.792Z,2.20
2022-10-26T04:35:12.080Z,2.10
2022-10-26T04:37:43.238Z,2.20
2022-10-26T04:40:12.001Z,2.00
2022-10-26T04:42:44.070Z,2.07
2022-10-26T04:45:13.635Z,2.20
2022-10-26T04:47:44.577Z,2.50
2022-10-26T04:50:14.021Z,2.30
2022-10-26T04:52:42.601Z,2.13
2022-10-26T04:55:10.842Z,2.27
2022-10-26T04:57:38.771Z,2.50
2022-10-26T05:00:07.421Z,2.20
2022-10-26T05:02:35.320Z,2.10
2022-10-26T05:05:06.166Z,2.10
2022-10-26T05:07:35.883Z,2.00
2022-10-26T05:10:03.969Z,2.03
2022-10-26T05:12:31.935Z,2.03
2022-10-26T05:15:00.301Z,2.40
2022-10-26T05:17:32.081Z,2.40
2022-10-26T05:20:05.687Z,2.60
2022-10-26T05:22:34.989Z,2.47
2022-10-26T05:25:02.951Z,2.10
2022-10-26T05:27:30.890Z,2.30
2022-10-26T05:30:01.319Z,2.40
2022-10-26T05:32:29.322Z,2.40
2022-10-26T05:34:57.322Z,2.33
2022-10-26T05:37:25.208Z,1.90
2022-10-26T05:39:54.537Z,2.30
2022-10-26T05:42:22.663Z,1.87
2022-10-26T05:44:50.632Z,2.20
2022-10-26T05:47:18.616Z,2.57
2022-10-26T05:49:46.577Z,2.67
2022-10-26T05:52:14.506Z,2.70
2022-10-26T05:54:42.419Z,2.27
2022-10-26T05:57:14.487Z,2.03
2022-10-26T05:59:42.883Z,2.37
2022-10-26T06:02:20.232Z,2.60
2022-10-26T06:04:48.989Z,2.37
2022-10-26T06:07:20.028Z,2.60
2022-10-26T06:09:49.010Z,2.30
2022-10-26T06:12:19.876Z,2.20
2022-10-26T06:14:48.746Z,2.77
2022-10-26T06:17:41.993Z,2.77
2022-10-26T06:20:35.126Z,2.50
2022-10-26T06:23:20.986Z,2.30
2022-10-26T06:25:59.172Z,2.30
2022-10-26T06:28:37.077Z,2.40
2022-10-26T06:31:05.345Z,2.70
2022-10-26T06:33:33.539Z,2.50
2022-10-26T06:36:15.920Z,2.50
2022-10-26T06:38:47.040Z,2.63
2022-10-26T06:41:18.919Z,2.57
2022-10-26T06:43:49.210Z,2.60
2022-10-26T06:46:35.781Z,2.37
2022-10-26T06:49:10.416Z,3.20
2022-10-26T06:51:47.071Z,2.80
2022-10-26T06:54:22.743Z,3.00
2022-10-26T06:56:52.765Z,3.00
2022-10-26T06:59:35.520Z,2.70
2022-10-26T07:02:06.361Z,2.50
2022-10-26T07:04:37.061Z,2.40
2022-10-26T07:07:05.267Z,2.67
2022-10-26T07:09:33.216Z,2.90
2022-10-26T07:12:01.622Z,2.30
2022-10-26T07:14:30.926Z,2.60
2022-10-26T07:16:58.881Z,2.53
2022-10-26T07:19:26.856Z,2.13
2022-10-26T07:21:56.651Z,2.83
2022-10-26T07:24:24.749Z,2.80
2022-10-26T07:26:54.867Z,2.80
2022-10-26T07:29:22.922Z,2.70
2022-10-26T07:34:25.604Z,3.00
2022-10-26T07:36:53.865Z,2.43
2022-10-26T07:39:21.851Z,2.37
2022-10-26T07:41:51.950Z,2.27
2022-10-26T07:44:20.141Z,2.43
2022-10-26T07:46:48.229Z,2.03
2022-10-26T07:49:19.572Z,2.40
2022-10-26T07:51:48.044Z,2.77
2022-10-26T07:54:15.992Z,2.93
2022-10-26T07:56:43.995Z,2.87
2022-10-26T07:59:13.302Z,2.80
2022-10-26T08:01:41.328Z,2.97
2022-10-26T08:04:09.368Z,2.63
2022-10-26T08:06:38.686Z,3.70
2022-10-26T08:09:06.776Z,4.30
2022-10-26T08:11:36.962Z,4.00
2022-10-26T08:14:05.109Z,5.27
2022-10-26T08:16:34.778Z,5.57
2022-10-26T08:19:02.685Z,5.87
2022-10-26T08:21:45.876Z,8.53
2022-10-26T08:24:15.246Z,15.07
2022-10-26T08:26:43.870Z,13.80
2022-10-26T08:29:11.873Z,13.83
2022-10-26T08:31:39.827Z,11.07
2022-10-26T08:34:07.877Z,15.50
2022-10-26T08:36:35.798Z,18.13
2022-10-26T08:39:03.887Z,18.03
2022-10-26T08:41:38.653Z,16.17
2022-10-26T08:44:19.723Z,14.53
2022-10-26T08:46:53.382Z,16.63
2022-10-26T08:49:26.006Z,13.63
2022-10-26T08:51:58.711Z,17.00
2022-10-26T08:54:36.261Z,18.67
2022-10-26T08:57:15.222Z,17.50
2022-10-26T08:59:48.754Z,16.43
2022-10-26T09:02:18.934Z,17.13
2022-10-26T09:04:47.449Z,20.43
2022-10-26T09:07:37.019Z,21.27
2022-10-26T09:10:15.007Z,22.20
2022-10-26T09:12:50.156Z,23.50
2022-10-26T09:15:28.045Z,25.60
2022-10-26T09:18:05.593Z,22.87
2022-10-26T09:20:55.546Z,19.90
2022-10-26T09:23:38.340Z,17.30
2022-10-26T09:26:14.297Z,16.90
2022-10-26T09:28:47.690Z,16.13
2022-10-26T09:31:18.281Z,16.00
2022-10-26T09:33:46.254Z,18.33
2022-10-26T09:36:19.858Z,15.80
2022-10-26T09:38:56.304Z,15.57
2022-10-26T09:41:31.640Z,15.17
2022-10-26T09:44:09.915Z,14.20
2022-10-26T09:46:47.960Z,15.27
2022-10-26T09:49:18.605Z,15.53
2022-10-26T09:51:46.566Z,14.17
2022-10-26T09:54:17.239Z,15.10
2022-10-26T09:56:47.372Z,13.97
2022-10-26T09:59:19.284Z,12.67
2022-10-26T10:01:47.281Z,14.37
2022-10-26T10:04:21.230Z,15.07
2022-10-26T10:06:50.752Z,16.73
2022-10-26T10:09:20.984Z,16.50
2022-10-26T10:11:56.428Z,15.63
2022-10-26T10:14:28.507Z,15.13
2022-10-26T10:16:58.160Z,17.73
2022-10-26T10:19:28.554Z,17.73
2022-10-26T10:21:59.495Z,16.73
2022-10-26T10:24:29.635Z,19.20
2022-10-26T10:27:02.782Z,16.83
2022-10-26T10:29:34.399Z,18.43
2022-10-26T10:32:04.048Z,17.10
2022-10-26T10:34:32.965Z,18.00
2022-10-26T10:37:01.822Z,19.27
2022-10-26T10:39:39.722Z,19.03
2022-10-26T10:42:17.582Z,17.80
2022-10-26T10:44:48.384Z,20.17
2022-10-26T10:47:23.527Z,20.30
2022-10-26T10:49:57.233Z,18.50
2022-10-26T10:52:28.399Z,19.63
2022-10-26T10:55:16.366Z,18.33
2022-10-26T10:57:58.232Z,18.20
2022-10-26T11:00:27.743Z,17.20
2022-10-26T11:03:19.979Z,17.33
2022-10-26T11:06:06.150Z,17.07
2022-10-26T11:08:42.197Z,16.67
2022-10-26T11:11:14.186Z,16.33
2022-10-26T11:13:49.731Z,15.20
2022-10-26T11:16:23.939Z,14.67
2022-10-26T11:18:55.237Z,15.50
2022-10-26T11:21:28.876Z,15.17
2022-10-26T11:24:11.311Z,14.20
2022-10-26T11:26:46.208Z,13.90
2022-10-26T11:29:24.533Z,16.00
2022-10-26T11:32:00.057Z,17.10
2022-10-26T11:34:35.074Z,14.73
2022-10-26T11:37:11.028Z,14.30
2022-10-26T11:39:46.028Z,13.90
2022-10-26T11:42:24.834Z,13.23
2022-10-26T11:44:56.701Z,14.77
2022-10-26T11:47:35.456Z,14.07
2022-10-26T11:50:14.735Z,11.97
2022-10-26T11:52:49.301Z,11.17
2022-10-26T11:55:19.241Z,13.50
2022-10-26T11:57:47.997Z,12.50
2022-10-26T12:00:18.579Z,12.00
2022-10-26T12:02:51.228Z,11.67
2022-10-26T12:05:22.983Z,11.83
2022-10-26T12:07:54.224Z,11.63
2022-10-26T12:10:29.077Z,11.07
2022-10-26T12:13:08.501Z,10.03
2022-10-26T12:16:02.136Z,12.07
2022-10-26T12:18:57.259Z,11.47
2022-10-26T12:21:28.829Z,9.80
2022-10-26T12:23:59.533Z,10.27
2022-10-26T12:26:51.833Z,11.70
2022-10-26T12:29:47.624Z,11.60
2022-10-26T12:32:54.737Z,11.87
2022-10-26T12:35:36.914Z,13.37
2022-10-26T12:38:52.018Z,12.27
2022-10-26T12:41:27.549Z,12.50
2022-10-26T12:46:40.559Z,13.60
2022-10-26T12:49:59.119Z,13.90
2022-10-26T12:52:48.612Z,12.47
2022-10-26T12:55:39.341Z,10.07
2022-10-26T12:58:42.484Z,10.30
2022-10-26T13:01:33.497Z,9.70
2022-10-26T13:04:26.203Z,9.50
2022-10-26T13:07:17.750Z,9.03
2022-10-26T13:09:56.097Z,9.27
2022-10-26T13:12:24.180Z,8.63
2022-10-26T13:15:02.620Z,9.00
2022-10-26T13:20:08.211Z,9.80
2022-10-26T13:22:46.820Z,10.23
2022-10-26T13:25:24.413Z,10.50
2022-10-26T13:28:07.154Z,9.10
2022-10-26T13:30:45.653Z,9.10
2022-10-26T13:33:23.834Z,9.60
2022-10-26T13:35:58.257Z,9.33
2022-10-26T13:38:32.342Z,10.23
2022-10-26T13:41:24.933Z,10.27
2022-10-26T13:46:39.617Z,10.07
2022-10-26T13:49:14.587Z,9.67
2022-10-26T13:51:45.351Z,9.83
2022-10-26T13:54:23.913Z,8.97
2022-10-26T13:57:05.027Z,9.13
2022-10-26T13:59:38.519Z,8.87
2022-10-26T14:02:19.200Z,8.90
2022-10-26T14:04:49.714Z,8.37
2022-10-26T14:07:22.809Z,9.00
2022-10-26T14:09:55.557Z,9.43
2022-10-26T14:12:26.319Z,9.20
2022-10-26T14:14:55.265Z,8.83
2022-10-26T14:17:26.672Z,9.00
2022-10-26T14:19:55.317Z,9.23
2022-10-26T14:22:27.414Z,8.87
2022-10-26T14:24:56.812Z,11.17
2022-10-26T14:27:28.590Z,9.63
2022-10-26T14:30:21.528Z,10.70
2022-10-26T14:32:44.810Z,9.80
2022-10-26T14:35:13.976Z,10.20
2022-10-26T14:37:50.685Z,12.57
2022-10-26T14:40:20.588Z,11.83
2022-10-26T14:42:54.094Z,11.00
2022-10-26T14:45:29.856Z,11.60
2022-10-26T14:48:23.734Z,10.90
2022-10-26T14:51:02.361Z,10.87
2022-10-26T14:53:37.414Z,12.07
2022-10-26T14:56:07.127Z,11.57
2022-10-26T14:58:37.638Z,10.00
2022-10-26T15:01:36.172Z,11.07
2022-10-26T15:04:06.599Z,11.73
2022-10-26T15:06:44.482Z,10.60
2022-10-26T15:09:38.921Z,12.23
2022-10-26T15:12:09.519Z,10.23
2022-10-26T15:14:43.677Z,10.47
2022-10-26T15:17:23.468Z,10.90
2022-10-26T15:19:53.660Z,10.23
2022-10-26T15:22:29.516Z,11.90
2022-10-26T15:25:03.149Z,10.87
2022-10-26T15:27:31.645Z,10.17
2022-10-26T15:30:26.171Z,10.17
2022-10-26T15:32:55.019Z,10.60
2022-10-26T15:35:31.483Z,10.73
2022-10-26T15:38:01.020Z,11.00
2022-10-26T15:40:30.760Z,10.63
2022-10-26T15:43:01.607Z,10.80
2022-10-26T15:45:34.079Z,11.73
2022-10-26T15:48:18.437Z,11.17
2022-10-26T15:50:46.361Z,10.93
2022-10-26T15:53:20.490Z,11.70
2022-10-26T15:55:48.961Z,10.40
2022-10-26T15:58:17.222Z,11.53
2022-10-26T16:00:46.739Z,11.97
2022-10-26T16:03:17.871Z,12.03
2022-10-26T16:05:46.070Z,12.17
2022-10-26T16:08:18.005Z,11.90
2022-10-26T16:10:47.501Z,12.67
2022-10-26T16:13:16.080Z,11.97
2022-10-26T16:15:44.566Z,11.77
2022-10-26T16:18:13.961Z,11.77
2022-10-26T16:20:42.590Z,12.73
2022-10-26T16:23:10.479Z,12.07
2022-10-26T16:25:43.982Z,12.93
2022-10-26T16:28:14.170Z,12.43
2022-10-26T16:30:42.181Z,12.23
2022-10-26T16:33:10.291Z,12.77
2022-10-26T16:35:39.581Z,11.80
2022-10-26T16:38:07.603Z,13.20
2022-10-26T16:40:35.574Z,13.67
2022-10-26T16:43:03.514Z,12.50
2022-10-26T16:45:31.830Z,13.23
2022-10-26T16:47:59.778Z,14.03
2022-10-26T16:50:27.725Z,14.20
2022-10-26T16:52:57.057Z,15.20
2022-10-26T16:55:25.089Z,14.83
2022-10-26T16:57:53.125Z,14.17
2022-10-26T17:00:21.221Z,15.23
2022-10-26T17:02:49.154Z,14.63
2022-10-26T17:05:17.196Z,15.00
2022-10-26T17:07:45.180Z,15.73
2022-10-26T17:10:14.500Z,15.63
2022-10-26T17:12:42.458Z,20.40
2022-10-26T17:15:12.888Z,29.90
2022-10-26T17:17:42.946Z,28.17
2022-10-26T17:20:12.258Z,26.00
2022-10-26T17:22:40.845Z,24.27
2022-10-26T17:25:09.278Z,22.83
2022-10-26T17:27:41.240Z,24.73
2022-10-26T17:30:11.976Z,23.83
2022-10-26T17:32:39.908Z,27.30
2022-10-26T17:35:08.504Z,23.97
2022-10-26T17:37:37.545Z,20.73
2022-10-26T17:40:06.369Z,20.33
2022-10-26T17:42:34.341Z,21.83
2022-10-26T17:45:03.659Z,20.87
2022-10-26T17:47:31.662Z,18.70
2022-10-26T17:50:00.139Z,18.80
2022-10-26T17:52:28.093Z,19.33
2022-10-26T17:54:58.102Z,17.53
2022-10-26T17:57:28.455Z,18.23
2022-10-26T17:59:56.438Z,18.90
2022-10-26T18:02:25.911Z,19.70
2022-10-26T18:04:53.905Z,18.93
2022-10-26T18:07:22.241Z,18.50
2022-10-26T18:09:50.231Z,19.67
2022-10-26T18:12:18.161Z,19.57
2022-10-26T18:14:46.117Z,18.57
2022-10-26T18:17:14.127Z,18.33
2022-10-26T18:19:43.406Z,17.93
2022-10-26T18:22:11.345Z,17.17
2022-10-26T18:24:39.280Z,18.13
2022-10-26T18:27:07.238Z,18.13
2022-10-26T18:29:37.497Z,17.70
2022-10-26T18:32:07.703Z,19.03
2022-10-26T18:34:35.947Z,19.60
2022-10-26T18:37:05.252Z,17.57
2022-10-26T18:39:33.185Z,18.90
2022-10-26T18:42:01.122Z,17.93
2022-10-26T18:47:17.209Z,16.63
2022-10-26T18:49:45.157Z,19.17
2022-10-26T18:52:14.518Z,21.97
2022-10-26T18:54:42.461Z,20.07
2022-10-26T18:57:10.448Z,21.67
2022-10-26T18:59:38.383Z,22.10
2022-10-26T19:04:39.221Z,21.07
2022-10-26T19:07:07.505Z,21.90
2022-10-26T19:09:36.838Z,19.90
2022-10-26T19:12:04.984Z,22.17
2022-10-26T19:14:32.912Z,20.83
2022-10-26T19:17:00.859Z,19.23
2022-10-26T19:19:28.790Z,19.50
2022-10-26T19:21:56.765Z,21.37
2022-10-26T19:24:24.943Z,18.97
2022-10-26T19:26:54.277Z,17.37
2022-10-26T19:29:22.282Z,17.87
2022-10-26T19:31:53.520Z,17.27
2022-10-26T19:34:21.691Z,17.80
2022-10-26T19:36:49.778Z,20.20
2022-10-26T19:39:18.812Z,18.97
2022-10-26T19:41:47.434Z,19.43
2022-10-26T19:44:17.386Z,20.00
2022-10-26T19:46:47.588Z,18.47
2022-10-26T19:49:17.445Z,19.03
2022-10-26T19:51:45.425Z,19.70
2022-10-26T19:54:13.389Z,19.07
2022-10-26T19:56:41.316Z,18.40
2022-10-26T19:59:09.298Z,20.13
2022-10-26T20:01:38.897Z,19.13
2022-10-26T20:04:07.331Z,19.37
2022-10-26T20:06:35.547Z,19.83
2022-10-26T20:09:03.861Z,20.40
2022-10-26T20:11:32.337Z,20.03
2022-10-26T20:14:00.556Z,19.53
2022-10-26T20:16:28.567Z,20.77
2022-10-26T20:18:57.918Z,22.53
2022-10-26T20:21:25.892Z,23.47
2022-10-26T20:23:53.909Z,28.47
2022-10-26T20:26:23.389Z,24.87
2022-10-26T20:28:53.219Z,25.40
2022-10-26T20:31:21.120Z,24.57
2022-10-26T20:33:52.036Z,22.37
2022-10-26T20:36:21.798Z,24.17
2022-10-26T20:38:50.455Z,23.37
2022-10-26T20:41:19.044Z,24.80
2022-10-26T20:43:47.747Z,22.70
2022-10-26T20:46:23.268Z,23.87
2022-10-26T20:48:52.240Z,23.73
2022-10-26T20:51:27.079Z,21.97
2022-10-26T20:54:03.493Z,22.07
2022-10-26T20:56:33.040Z,21.13
2022-10-26T20:59:03.387Z,21.53
2022-10-26T21:01:33.357Z,20.87
2022-10-26T21:04:02.977Z,20.70
2022-10-26T21:06:39.787Z,19.67
2022-10-26T21:09:08.727Z,19.80
2022-10-26T21:11:37.206Z,21.33
2022-10-26T21:14:06.360Z,19.23
2022-10-26T21:16:34.514Z,18.60
2022-10-26T21:19:04.924Z,20.10
2022-10-26T21:21:34.281Z,18.80
2022-10-26T21:24:02.947Z,21.57
2022-10-26T21:26:30.873Z,20.17
2022-10-26T21:28:58.789Z,20.23
2022-10-26T21:31:26.782Z,20.60
2022-10-26T21:33:54.718Z,21.50
2022-10-26T21:36:23.099Z,20.80
2022-10-26T21:38:52.408Z,19.27
2022-10-26T21:41:21.942Z,18.13
2022-10-26T21:43:59.229Z,19.17
2022-10-26T21:46:36.986Z,21.70
2022-10-26T21:49:05.288Z,20.30
2022-10-26T21:51:33.266Z,24.90
2022-10-26T21:54:02.664Z,27.23
2022-10-26T21:56:30.608Z,24.87
2022-10-26T21:59:00.106Z,24.50
2022-10-26T22:01:28.268Z,28.03
2022-10-26T22:03:56.276Z,23.17
2022-10-26T22:06:24.477Z,29.73
2022-10-26T22:08:52.468Z,26.43
2022-10-26T22:11:23.413Z,29.60
2022-10-26T22:13:52.076Z,31.07
2022-10-26T22:16:21.649Z,27.00
2022-10-26T22:18:51.214Z,29.20
2022-10-26T22:21:20.758Z,27.80
2022-10-26T22:23:49.168Z,26.80
2022-10-26T22:26:19.608Z,26.03
2022-10-26T22:28:51.918Z,26.30
2022-10-26T22:31:22.001Z,27.77
2022-10-26T22:33:53.742Z,26.50
2022-10-26T22:36:22.369Z,25.00
2022-10-26T22:38:51.063Z,23.67
2022-10-26T22:41:20.142Z,26.13
2022-10-26T22:43:50.723Z,21.67
2022-10-26T22:46:20.741Z,24.43
2022-10-26T22:48:48.971Z,22.00
2022-10-26T22:51:19.698Z,21.97
2022-10-26T22:53:51.792Z,21.87
2022-10-26T22:56:19.746Z,21.67
2022-10-26T22:58:49.130Z,21.07
2022-10-26T23:01:19.646Z,21.00
2022-10-26T23:03:47.942Z,22.93
2022-10-26T23:06:17.558Z,24.50
2022-10-26T23:08:45.875Z,23.90
2022-10-26T23:11:15.813Z,21.60
2022-10-26T23:13:43.795Z,23.23
2022-10-26T23:16:15.033Z,20.77
2022-10-26T23:18:43.317Z,21.07
2022-10-26T23:21:12.454Z,22.57
2022-10-26T23:23:41.045Z,22.67
2022-10-26T23:26:12.042Z,23.47
2022-10-26T23:28:40.846Z,20.77
2022-10-26T23:31:09.889Z,21.40
2022-10-26T23:33:39.169Z,21.37
2022-10-26T23:36:07.567Z,21.77
2022-10-26T23:38:35.479Z,21.17
2022-10-26T23:41:03.472Z,22.40
2022-10-26T23:43:31.401Z,22.33
2022-10-26T23:45:59.397Z,24.50
2022-10-26T23:48:27.320Z,25.37
2022-10-26T23:50:56.883Z,23.93
2022-10-26T23:53:26.174Z,23.60
2022-10-26T23:55:54.464Z,25.83
2022-10-26T23:58:22.435Z,22.73
